createdAt,value
2023-01-12T00:02:23.140Z,6.30
2023-01-12T00:08:18.050Z,9.53
2023-01-12T00:14:11.556Z,7.83
2023-01-12T00:20:06.792Z,13.47
2023-01-12T00:26:01.555Z,6.60
2023-01-12T00:31:56.135Z,10.07
2023-01-12T00:44:20.377Z,9.80
2023-01-12T00:50:13.845Z,6.63
2023-01-12T00:56:08.033Z,9.10
2023-01-12T01:02:02.841Z,6.83
2023-01-12T01:07:56.277Z,7.03
2023-01-12T01:13:50.056Z,6.97
2023-01-12T01:19:44.474Z,7.03
2023-01-12T01:25:38.022Z,5.37
2023-01-12T01:31:31.662Z,6.27
2023-01-12T01:37:26.589Z,4.87
2023-01-12T01:43:21.732Z,5.30
2023-01-12T01:49:33.542Z,8.10
2023-01-12T01:55:30.787Z,4.97
2023-01-12T02:01:24.619Z,12.10
2023-01-12T02:07:18.198Z,6.10
2023-01-12T02:13:30.402Z,8.00
2023-01-12T02:19:46.743Z,6.43
2023-01-12T02:26:04.519Z,8.50
2023-01-12T02:32:07.391Z,7.00
2023-01-12T02:38:09.996Z,5.00
2023-01-12T02:44:04.502Z,8.20
2023-01-12T02:50:02.753Z,5.70
2023-01-12T02:55:56.380Z,6.10
2023-01-12T03:01:52.708Z,8.30
2023-01-12T03:07:50.279Z,11.50
2023-01-12T03:13:48.497Z,4.73
2023-01-12T03:19:44.693Z,5.87
2023-01-12T03:25:40.837Z,4.90
2023-01-12T03:31:34.454Z,4.30
2023-01-12T03:37:32.507Z,5.27
2023-01-12T03:43:32.328Z,2.30
2023-01-12T03:49:30.958Z,10.43
2023-01-12T03:55:26.262Z,4.80
2023-01-12T04:01:21.250Z,5.17
2023-01-12T04:07:14.763Z,4.23
2023-01-12T04:13:08.295Z,4.40
2023-01-12T04:19:03.058Z,5.40
2023-01-12T04:24:56.485Z,5.03
2023-01-12T04:30:49.883Z,5.07
2023-01-12T04:36:44.416Z,6.93
2023-01-12T04:42:56.940Z,7.97
2023-01-12T04:48:50.318Z,4.67
2023-01-12T04:54:44.652Z,3.87
2023-01-12T05:00:38.175Z,5.20
2023-01-12T05:06:31.583Z,8.40
2023-01-12T05:12:26.366Z,2.47
2023-01-12T05:18:20.202Z,6.07
2023-01-12T05:24:13.580Z,3.27
2023-01-12T05:30:10.235Z,4.60
2023-01-12T05:36:06.066Z,4.90
2023-01-12T05:42:16.845Z,3.73
2023-01-12T05:48:12.333Z,3.23
2023-01-12T05:54:06.683Z,5.80
2023-01-12T06:00:00.189Z,7.80
2023-01-12T06:05:58.713Z,6.67
2023-01-12T06:12:09.835Z,4.50
2023-01-12T06:18:02.945Z,8.60
2023-01-12T06:23:57.274Z,3.63
2023-01-12T06:29:50.792Z,3.70
2023-01-12T06:35:50.316Z,3.77
2023-01-12T06:42:02.647Z,6.90
2023-01-12T06:47:57.253Z,5.00
2023-01-12T06:53:50.629Z,3.70
2023-01-12T06:59:45.804Z,4.60
2023-01-12T07:05:39.208Z,4.73
2023-01-12T07:11:32.711Z,3.10
2023-01-12T07:17:27.479Z,3.87
2023-01-12T07:23:21.117Z,2.77
2023-01-12T07:29:14.476Z,3.10
2023-01-12T07:35:09.670Z,5.80
2023-01-12T07:41:03.181Z,3.90
2023-01-12T07:46:56.151Z,3.00
2023-01-12T07:52:51.291Z,2.20
2023-01-12T07:58:44.923Z,3.20
2023-01-12T08:04:38.377Z,2.00
2023-01-12T08:10:33.587Z,2.07
2023-01-12T08:16:30.611Z,3.43
2023-01-12T08:22:28.332Z,1.40
2023-01-12T08:28:29.053Z,3.20
2023-01-12T08:34:22.091Z,3.03
2023-01-12T08:40:16.043Z,3.67
2023-01-12T08:46:10.956Z,1.73
2023-01-12T08:52:04.552Z,1.40
2023-01-12T08:57:58.183Z,1.17
2023-01-12T09:03:52.568Z,3.60
2023-01-12T09:09:46.209Z,1.33
2023-01-12T09:15:39.441Z,1.23
2023-01-12T09:21:34.342Z,2.57
2023-01-12T09:27:27.321Z,1.03
2023-01-12T09:33:24.008Z,1.17
2023-01-12T09:39:27.306Z,1.97
2023-01-12T09:45:41.371Z,2.03
2023-01-12T09:51:38.031Z,1.00
2023-01-12T09:58:07.127Z,0.97
2023-01-12T10:04:02.354Z,2.40
2023-01-12T10:09:55.792Z,0.70
2023-01-12T10:15:55.124Z,0.60
2023-01-12T10:21:48.972Z,0.70
2023-01-12T10:27:48.092Z,0.70
2023-01-12T10:34:03.171Z,0.77
2023-01-12T10:39:56.862Z,1.40
2023-01-12T10:46:06.494Z,0.80
2023-01-12T10:52:03.187Z,0.60
2023-01-12T10:57:56.848Z,1.43
2023-01-12T11:03:51.237Z,1.20
2023-01-12T11:09:46.561Z,0.90
2023-01-12T11:15:40.260Z,0.70
2023-01-12T11:21:38.071Z,0.70
2023-01-12T11:27:38.959Z,0.90
2023-01-12T11:33:40.226Z,1.33
2023-01-12T11:39:35.092Z,1.00
2023-01-12T11:45:40.302Z,1.07
2023-01-12T11:51:33.856Z,1.40
2023-01-12T11:57:46.425Z,0.80
2023-01-12T12:04:01.896Z,1.10
2023-01-12T12:10:09.088Z,1.47
2023-01-12T12:16:18.019Z,1.27
2023-01-12T12:22:25.520Z,1.07
2023-01-12T12:28:43.731Z,1.23
2023-01-12T12:34:54.290Z,0.70
2023-01-12T12:41:17.113Z,1.03
2023-01-12T12:47:34.909Z,1.00
2023-01-12T12:53:31.058Z,0.80
2023-01-12T12:59:53.885Z,1.57
2023-01-12T13:05:48.779Z,2.40
2023-01-12T13:11:52.273Z,1.17
2023-01-12T13:17:50.127Z,1.73
2023-01-12T13:23:49.320Z,2.87
2023-01-12T13:29:44.803Z,3.30
2023-01-12T13:36:12.012Z,2.30
2023-01-12T13:42:31.073Z,1.97
2023-01-12T13:48:26.333Z,3.47
2023-01-12T13:54:19.810Z,2.30
2023-01-12T14:00:22.774Z,1.33
2023-01-12T14:06:24.559Z,5.00
2023-01-12T14:12:46.417Z,4.10
2023-01-12T14:18:46.018Z,4.53
2023-01-12T14:24:39.437Z,3.40
2023-01-12T14:30:35.237Z,3.50
2023-01-12T14:36:35.315Z,3.23
2023-01-12T14:42:46.389Z,1.23
2023-01-12T14:48:42.847Z,1.73
2023-01-12T14:54:37.659Z,3.90
2023-01-12T15:00:33.767Z,2.13
2023-01-12T15:06:27.785Z,3.90
2023-01-12T15:12:44.230Z,2.27
2023-01-12T15:18:55.462Z,1.90
2023-01-12T15:25:06.544Z,3.43
2023-01-12T15:31:01.002Z,6.47
2023-01-12T15:36:55.486Z,3.27
2023-01-12T15:42:48.955Z,4.30
2023-01-12T15:48:43.736Z,3.10
2023-01-12T15:54:37.120Z,2.93
2023-01-12T16:00:30.540Z,6.93
2023-01-12T16:06:30.492Z,3.40
2023-01-12T16:12:23.968Z,4.77
2023-01-12T16:18:18.460Z,4.20
2023-01-12T16:24:14.312Z,1.83
2023-01-12T16:30:10.107Z,2.03
2023-01-12T16:36:03.841Z,8.30
2023-01-12T16:42:03.977Z,1.57
2023-01-12T16:47:57.851Z,2.43
2023-01-12T16:53:53.402Z,2.33
2023-01-12T16:59:51.058Z,2.97
2023-01-12T17:05:45.176Z,3.33
2023-01-12T17:11:41.533Z,3.10
2023-01-12T17:17:37.077Z,3.13
2023-01-12T17:23:30.746Z,6.67
2023-01-12T17:29:25.736Z,5.90
2023-01-12T17:35:20.089Z,2.60
2023-01-12T17:41:35.910Z,4.07
2023-01-12T17:47:29.576Z,1.93
2023-01-12T17:53:24.387Z,3.97
2023-01-12T17:59:19.214Z,2.40
2023-01-12T18:05:12.801Z,3.13
2023-01-12T18:11:09.293Z,3.20
2023-01-12T18:17:02.257Z,1.97
2023-01-12T18:22:55.313Z,2.40
2023-01-12T18:28:50.120Z,1.50
2023-01-12T18:34:43.800Z,2.13
2023-01-12T18:40:37.202Z,1.33
2023-01-12T18:46:46.498Z,1.50
2023-01-12T18:52:57.477Z,2.40
2023-01-12T18:58:52.391Z,1.80
2023-01-12T19:05:08.690Z,2.27
2023-01-12T19:11:09.482Z,1.60
2023-01-12T19:17:20.426Z,2.10
2023-01-12T19:23:32.607Z,1.53
2023-01-12T19:29:26.027Z,1.40
2023-01-12T19:35:19.604Z,1.33
2023-01-12T19:41:33.960Z,1.57
2023-01-12T19:47:27.448Z,1.60
2023-01-12T19:53:22.908Z,1.17
2023-01-12T19:59:17.243Z,1.10
2023-01-12T20:05:13.301Z,1.97
2023-01-12T20:11:07.240Z,1.40
2023-01-12T20:17:02.150Z,1.67
2023-01-12T20:22:56.380Z,2.07
2023-01-12T20:28:49.795Z,3.10
2023-01-12T20:34:45.331Z,1.90
2023-01-12T20:40:40.428Z,1.77
2023-01-12T20:46:33.808Z,1.87
2023-01-12T20:52:28.896Z,1.93
2023-01-12T20:58:22.529Z,1.60
2023-01-12T21:04:15.599Z,3.03
2023-01-12T21:10:12.334Z,2.07
2023-01-12T21:16:08.637Z,2.43
2023-01-12T21:22:02.247Z,1.80
2023-01-12T21:27:57.625Z,1.77
2023-01-12T21:33:50.667Z,1.20
2023-01-12T21:39:44.076Z,1.10
2023-01-12T21:45:39.670Z,1.20
2023-01-12T21:51:33.311Z,1.27
2023-01-12T21:57:26.970Z,1.63
2023-01-12T22:03:25.169Z,1.30
2023-01-12T22:09:18.971Z,1.30
2023-01-12T22:15:12.980Z,1.40
2023-01-12T22:21:10.624Z,1.40
2023-01-12T22:27:03.590Z,2.00
2023-01-12T22:32:57.130Z,1.80
2023-01-12T22:38:51.983Z,1.30
2023-01-12T22:44:45.444Z,1.87
2023-01-12T22:50:38.958Z,1.30
2023-01-12T22:56:33.750Z,1.33
2023-01-12T23:02:44.989Z,2.03
2023-01-12T23:08:38.548Z,1.17
2023-01-12T23:14:34.263Z,0.93
2023-01-12T23:20:27.828Z,1.20
2023-01-12T23:26:23.609Z,2.70
2023-01-12T23:32:18.098Z,1.40
2023-01-12T23:38:16.535Z,1.00
2023-01-12T23:44:11.953Z,2.20
2023-01-12T23:50:07.873Z,1.50
2023-01-12T23:56:06.596Z,1.00
